Time;durP1;ratioP1;P1;durP2;ratioP2;P2;SDS_P1;SDS_P2;PMS_P1;PMS_P2;Temp;Humidity;BMP_temperature;BMP_pressure;BME280_temperature;BME280_humidity;BME280_pressure;Samples;Min_cycle;Max_cycle;Signal;HPM_P1;HPM_P2
2022/05/28 00:00:39;;;;;;;2.47;0.70;;;;;;;19.36;40.13;98481.34;4485440;32;20104;-81
2022/05/28 00:03:05;;;;;;;2.25;0.70;;;;;;;19.25;40.36;98481.53;4487627;31;20076;-81
2022/05/28 00:05:31;;;;;;;2.53;0.70;;;;;;;19.14;40.58;98493.25;4486591;32;20088;-81
2022/05/28 00:07:57;;;;;;;3.08;0.90;;;;;;;19.17;40.07;98497.44;4488152;31;20088;-80
2022/05/28 00:10:22;;;;;;;2.75;0.55;;;;;;;19.33;39.75;98480.81;4487821;32;20107;-80
2022/05/28 00:12:48;;;;;;;1.62;0.70;;;;;;;19.10;39.94;98480.31;4487782;31;20101;-80
2022/05/28 00:15:14;;;;;;;1.40;0.62;;;;;;;18.82;40.44;98485.59;4486535;32;20153;-80
2022/05/28 00:17:39;;;;;;;1.50;0.60;;;;;;;19.07;39.68;98480.62;4487758;31;20104;-79
2022/05/28 00:20:06;;;;;;;2.42;0.60;;;;;;;18.99;39.74;98476.84;4487749;32;20092;-79
2022/05/28 00:22:40;;;;;;;2.05;0.70;;;;;;;18.92;39.85;98482.91;4486718;32;20145;-80
2022/05/28 00:25:06;;;;;;;1.98;0.70;;;;;;;19.20;39.14;98476.66;4486497;32;20116;-80
2022/05/28 00:27:31;;;;;;;1.67;0.80;;;;;;;19.29;38.89;98476.75;4487636;31;20607;-81
2022/05/28 00:29:57;;;;;;;1.37;0.80;;;;;;;19.38;38.90;98475.88;4487541;32;20072;-79
2022/05/28 00:32:23;;;;;;;1.73;0.60;;;;;;;19.33;38.82;98470.94;4487688;32;20107;-80
2022/05/28 00:34:49;;;;;;;2.22;0.60;;;;;;;19.46;38.74;98486.66;4486618;32;20108;-80
2022/05/28 00:37:14;;;;;;;3.53;0.80;;;;;;;19.18;39.31;98483.09;4487702;31;20119;-81
2022/05/28 00:39:40;;;;;;;2.15;0.75;;;;;;;19.23;39.43;98483.50;4487647;32;20450;-80
2022/05/28 00:42:05;;;;;;;1.50;0.70;;;;;;;19.01;39.90;98487.38;4487525;32;20080;-80
2022/05/28 00:44:30;;;;;;;1.85;0.82;;;;;;;18.98;40.18;98499.19;4486294;32;20131;-80
2022/05/28 00:46:59;;;;;;;0.80;0.57;;;;;;;18.78;40.31;98506.34;4487611;32;20088;-80
2022/05/28 00:49:27;;;;;;;1.30;0.70;;;;;;;18.71;40.26;98501.72;4486351;32;20106;-80
2022/05/28 00:51:55;;;;;;;2.45;0.80;;;;;;;18.39;40.90;98502.88;4486401;32;20140;-80
2022/05/28 00:54:20;;;;;;;2.47;0.73;;;;;;;18.55;40.74;98507.66;4486286;32;20133;-80
2022/05/28 00:56:46;;;;;;;2.25;0.77;;;;;;;18.47;40.89;98506.53;4487589;31;20229;-81
2022/05/28 00:59:11;;;;;;;1.65;0.77;;;;;;;18.40;40.98;98507.22;4473246;32;20106;-80
2022/05/28 01:01:41;;;;;;;2.97;0.80;;;;;;;18.24;41.39;98503.28;4487379;31;20094;-80
2022/05/28 01:04:14;;;;;;;3.15;0.82;;;;;;;18.45;41.16;98495.16;4486421;32;20100;-80
2022/05/28 01:06:43;;;;;;;3.30;1.00;;;;;;;18.53;41.03;98481.09;4487405;31;20110;-81
2022/05/28 01:09:17;;;;;;;2.72;0.80;;;;;;;18.36;41.50;98476.50;4487513;32;20465;-80
2022/05/28 01:11:50;;;;;;;4.10;1.00;;;;;;;18.25;41.90;98477.47;4472786;32;20222;-80
2022/05/28 01:14:51;;;;;;;3.22;1.05;;;;;;;18.38;41.62;98474.53;4473156;32;20541;-80
2022/05/28 01:17:22;;;;;;;5.07;0.93;;;;;;;18.45;41.36;98470.31;4487364;31;20110;-80
2022/05/28 01:19:50;;;;;;;1.50;0.88;;;;;;;18.26;41.68;98461.31;4486142;32;20088;-80
2022/05/28 01:22:20;;;;;;;2.78;0.80;;;;;;;17.79;42.71;98469.13;4486171;32;20076;-80
2022/05/28 01:24:55;;;;;;;2.72;0.80;;;;;;;17.86;42.93;98448.94;4487314;31;20111;-80
2022/05/28 01:27:26;;;;;;;1.90;0.80;;;;;;;17.91;42.99;98453.03;4487291;31;20727;-80
2022/05/28 01:29:54;;;;;;;2.20;1.00;;;;;;;17.70;43.71;98456.63;4486491;32;20117;-80
2022/05/28 01:32:21;;;;;;;1.87;0.85;;;;;;;17.75;43.74;98450.88;4487457;31;20411;-81
2022/05/28 01:34:47;;;;;;;3.25;0.85;;;;;;;17.69;44.03;98429.13;4486134;32;20158;-81
2022/05/28 01:37:13;;;;;;;2.67;1.02;;;;;;;17.49;44.69;98414.91;4486063;32;20598;-81
2022/05/28 01:39:41;;;;;;;2.75;0.80;;;;;;;17.76;44.22;98418.75;4486059;32;20088;-80
2022/05/28 01:42:08;;;;;;;1.85;0.85;;;;;;;17.88;43.97;98432.81;4487092;31;20472;-81
2022/05/28 01:44:34;;;;;;;4.18;1.10;;;;;;;17.57;44.94;98424.88;4485928;32;20117;-81
2022/05/28 01:46:59;;;;;;;2.10;0.82;;;;;;;17.63;45.00;98434.16;4486060;32;20528;-80
2022/05/28 01:49:25;;;;;;;7.32;1.02;;;;;;;17.51;45.38;98436.09;4487132;32;20080;-80
2022/05/28 01:51:54;;;;;;;3.30;1.00;;;;;;;17.51;45.51;98435.25;4485981;32;20106;-81
2022/05/28 01:54:23;;;;;;;3.22;1.30;;;;;;;17.60;45.52;98448.59;4472740;32;20455;-81
2022/05/28 01:56:51;;;;;;;4.35;1.00;;;;;;;17.65;45.53;98442.84;4485901;32;20385;-81
2022/05/28 01:59:21;;;;;;;4.07;1.10;;;;;;;17.69;45.52;98463.78;4485881;32;20112;-81
2022/05/28 02:01:47;;;;;;;4.65;1.30;;;;;;;17.71;45.54;98476.94;4487001;31;20080;-81
2022/05/28 02:04:13;;;;;;;2.80;1.10;;;;;;;17.66;45.67;98469.34;4485875;32;20154;-78
2022/05/28 02:06:39;;;;;;;2.80;1.00;;;;;;;17.79;45.58;98465.59;4486891;31;20133;-81
2022/05/28 02:09:11;;;;;;;4.80;1.50;;;;;;;17.28;46.89;98478.06;4485812;32;20139;-81
2022/05/28 02:12:09;;;;;;;3.33;1.30;;;;;;;17.45;46.60;98479.25;4485855;32;20184;-81
2022/05/28 02:14:56;;;;;;;4.20;1.20;;;;;;;17.40;46.76;98478.81;4422637;32;20123;-81
2022/05/28 02:17:59;;;;;;;4.05;1.40;;;;;;;17.32;47.13;98460.84;4423078;32;20181;-82
2022/05/28 02:20:27;;;;;;;3.67;1.27;;;;;;;17.39;47.04;98454.00;4422564;32;20089;-82
2022/05/28 02:22:57;;;;;;;2.75;1.08;;;;;;;17.24;47.34;98458.84;4422529;32;20416;-82
2022/05/28 02:25:47;;;;;;;3.20;1.15;;;;;;;17.13;47.73;98471.41;4408712;32;20098;-81
2022/05/28 02:28:14;;;;;;;3.97;1.40;;;;;;;17.03;48.05;98464.22;4415915;32;20587;-81
2022/05/28 02:30:48;;;;;;;4.37;1.30;;;;;;;17.21;47.53;98458.25;4409724;32;20086;-81
2022/05/28 02:33:13;;;;;;;4.68;1.20;;;;;;;16.87;48.47;98469.19;4409557;32;20513;-81
2022/05/28 02:35:39;;;;;;;4.85;1.30;;;;;;;16.95;48.38;98461.37;4422355;32;20109;-81
2022/05/28 02:38:04;;;;;;;6.87;1.83;;;;;;;17.09;48.18;98470.81;4422289;32;20630;-80
2022/05/28 02:40:30;;;;;;;3.25;1.00;;;;;;;17.00;48.29;98466.31;4422247;32;20511;-80
2022/05/28 02:42:55;;;;;;;3.22;1.30;;;;;;;16.95;48.56;98482.66;4409418;32;20119;-81
2022/05/28 02:45:20;;;;;;;3.62;1.30;;;;;;;16.83;48.95;98487.22;4422005;32;20627;-82
2022/05/28 02:47:46;;;;;;;4.53;1.30;;;;;;;17.02;48.46;98489.16;4422259;32;20110;-81
2022/05/28 02:50:12;;;;;;;3.78;1.20;;;;;;;17.25;47.88;98487.16;4422267;32;20128;-81
2022/05/28 02:52:37;;;;;;;3.80;1.35;;;;;;;17.31;47.60;98493.78;4484398;32;20083;-81
2022/05/28 02:55:03;;;;;;;4.97;1.40;;;;;;;17.36;47.21;98480.88;4485333;32;20387;-80
2022/05/28 02:57:29;;;;;;;2.67;1.30;;;;;;;17.23;47.49;98480.28;4486437;32;20148;-81
2022/05/28 02:59:56;;;;;;;4.22;1.30;;;;;;;17.24;47.48;98489.97;4486196;32;20463;-81
2022/05/28 03:02:23;;;;;;;7.60;1.58;;;;;;;17.47;46.89;98496.78;4485236;32;20106;-81
2022/05/28 03:04:48;;;;;;;3.63;1.30;;;;;;;17.35;47.00;98481.88;4485031;32;20187;-82
2022/05/28 03:07:14;;;;;;;4.57;1.30;;;;;;;17.12;47.78;98485.72;4485942;32;20536;-81
2022/05/28 03:09:39;;;;;;;3.67;1.30;;;;;;;17.21;47.49;98479.56;4486175;31;20096;-80
2022/05/28 03:12:05;;;;;;;3.47;1.00;;;;;;;16.95;47.89;98481.81;4486143;31;20114;-80
2022/05/28 03:14:30;;;;;;;4.43;1.42;;;;;;;17.08;47.85;98469.16;4486186;31;20111;-80
2022/05/28 03:16:56;;;;;;;3.50;1.23;;;;;;;16.93;48.24;98468.66;4486027;32;20085;-80
2022/05/28 03:19:21;;;;;;;4.18;1.25;;;;;;;16.87;48.62;98464.69;4486018;31;20084;-80
2022/05/28 03:21:47;;;;;;;2.70;1.10;;;;;;;17.12;48.29;98461.75;4484904;32;20412;-80
2022/05/28 03:24:12;;;;;;;6.72;1.42;;;;;;;17.13;48.22;98472.25;4485883;32;20428;-81
2022/05/28 03:26:38;;;;;;;2.75;1.10;;;;;;;16.81;48.75;98478.50;4485760;32;20089;-81
2022/05/28 03:29:04;;;;;;;4.95;1.20;;;;;;;17.10;48.26;98478.69;4486016;31;20144;-81
2022/05/28 03:31:29;;;;;;;5.03;1.40;;;;;;;17.26;47.80;98478.19;4485688;31;20080;-80
2022/05/28 03:33:56;;;;;;;3.50;1.10;;;;;;;17.24;47.75;98479.31;4485858;31;20168;-82
2022/05/28 03:36:23;;;;;;;4.35;1.25;;;;;;;17.43;47.19;98481.22;4487376;31;20096;-81
2022/05/28 03:38:49;;;;;;;4.18;1.20;;;;;;;17.31;47.62;98491.13;4486882;32;20099;-81
2022/05/28 03:41:14;;;;;;;2.12;1.02;;;;;;;17.21;47.76;98469.78;4486916;32;20080;-81
2022/05/28 03:43:40;;;;;;;4.45;1.42;;;;;;;17.46;47.38;98480.91;4487912;32;20108;-81
2022/05/28 03:46:16;;;;;;;4.75;1.10;;;;;;;17.66;46.80;98477.34;4487902;32;20453;-81
2022/05/28 03:48:42;;;;;;;2.58;1.10;;;;;;;17.65;46.87;98480.16;4473651;32;20076;-82
2022/05/28 03:51:07;;;;;;;3.40;1.08;;;;;;;17.93;46.33;98481.22;4486990;32;20102;-81
2022/05/28 03:53:33;;;;;;;5.07;1.30;;;;;;;17.98;46.19;98483.47;4488164;31;20088;-81
2022/05/28 03:55:58;;;;;;;4.50;1.35;;;;;;;18.05;46.10;98477.44;4488132;32;20104;-80
2022/05/28 03:58:24;;;;;;;3.72;1.20;;;;;;;17.85;46.43;98479.25;4486880;32;20143;-81
2022/05/28 04:00:49;;;;;;;4.40;1.20;;;;;;;17.74;46.87;98482.00;4488043;32;20124;-81
2022/05/28 04:03:15;;;;;;;3.65;1.20;;;;;;;17.75;46.70;98477.50;4488140;31;20121;-81
2022/05/28 04:05:40;;;;;;;3.50;1.12;;;;;;;17.96;46.26;98480.09;4487036;32;20096;-81
2022/05/28 04:08:07;;;;;;;3.35;1.10;;;;;;;18.14;45.83;98474.91;4488003;32;20080;-80
2022/05/28 04:10:32;;;;;;;3.42;1.17;;;;;;;17.99;46.03;98470.00;4473455;32;20589;-81
2022/05/28 04:12:57;;;;;;;4.00;1.30;;;;;;;18.14;45.79;98467.78;4487770;31;20089;-82
2022/05/28 04:15:24;;;;;;;5.18;1.33;;;;;;;17.88;46.45;98470.97;4487678;32;20360;-82
2022/05/28 04:17:50;;;;;;;6.70;1.50;;;;;;;17.50;47.47;98474.38;4487891;31;20083;-81
2022/05/28 04:20:16;;;;;;;2.50;1.15;;;;;;;17.58;47.51;98487.84;4487592;31;20107;-81
2022/05/28 04:22:41;;;;;;;2.85;1.10;;;;;;;17.72;47.30;98478.63;4487637;31;20140;-82
2022/05/28 04:25:07;;;;;;;3.58;1.10;;;;;;;17.71;47.19;98490.25;4487625;31;20084;-81
2022/05/28 04:27:33;;;;;;;5.82;1.40;;;;;;;17.99;46.62;98471.84;4486371;32;20084;-80
2022/05/28 04:30:02;;;;;;;4.30;1.20;;;;;;;18.26;45.90;98466.66;4487632;32;20080;-81
2022/05/28 04:32:27;;;;;;;6.00;1.25;;;;;;;17.97;46.41;98474.63;4487735;31;20100;-81
2022/05/28 04:34:53;;;;;;;4.45;1.12;;;;;;;18.00;46.63;98469.03;4487524;32;20458;-81
2022/05/28 04:37:18;;;;;;;3.45;1.15;;;;;;;17.73;46.81;98477.66;4486295;32;20076;-80
2022/05/28 04:39:45;;;;;;;4.70;1.35;;;;;;;17.91;46.67;98471.69;4487430;32;20110;-82
2022/05/28 04:42:10;;;;;;;5.43;1.30;;;;;;;18.19;46.26;98473.53;4487528;31;20111;-81
2022/05/28 04:44:36;;;;;;;3.12;1.10;;;;;;;18.40;45.58;98477.88;4487500;31;20084;-81
2022/05/28 04:47:01;;;;;;;2.40;1.10;;;;;;;18.50;45.42;98483.22;4486953;32;20079;-81
2022/05/28 04:49:27;;;;;;;4.32;1.27;;;;;;;18.62;45.16;98490.06;4487559;31;20088;-79
2022/05/28 04:51:52;;;;;;;4.05;1.30;;;;;;;18.58;45.27;98497.53;4487393;32;20357;-81
2022/05/28 04:54:17;;;;;;;5.80;1.20;;;;;;;18.79;44.81;98493.84;4487474;32;20081;-81
2022/05/28 04:56:43;;;;;;;3.80;1.42;;;;;;;18.79;44.88;98492.00;4487400;32;20128;-81
2022/05/28 04:59:08;;;;;;;3.85;1.20;;;;;;;18.81;45.22;98490.09;4487483;31;20093;-81
2022/05/28 05:01:34;;;;;;;3.28;1.40;;;;;;;19.11;44.91;98495.38;4487459;32;20130;-81
2022/05/28 05:03:59;;;;;;;4.47;1.20;;;;;;;19.01;44.66;98498.91;4487401;32;20110;-81
2022/05/28 05:06:25;;;;;;;4.32;1.30;;;;;;;19.28;44.08;98491.06;4487430;31;20164;-81
2022/05/28 05:08:50;;;;;;;4.82;1.30;;;;;;;19.43;43.60;98484.25;4487472;32;20076;-82
2022/05/28 05:11:16;;;;;;;3.97;1.27;;;;;;;19.52;43.41;98485.22;4485978;32;20144;-81
2022/05/28 05:13:41;;;;;;;4.15;1.25;;;;;;;19.56;42.98;98492.78;4487434;32;20114;-81
2022/05/28 05:16:12;;;;;;;4.25;1.40;;;;;;;19.41;43.76;98500.47;4486142;32;20080;-81
2022/05/28 05:18:37;;;;;;;3.62;1.23;;;;;;;19.65;43.08;98494.56;4487426;31;20072;-81
2022/05/28 05:21:03;;;;;;;4.12;1.20;;;;;;;19.67;42.79;98502.44;4486121;32;20384;-81
2022/05/28 05:23:29;;;;;;;3.03;1.30;;;;;;;19.84;42.40;98504.34;4472917;32;20399;-82
2022/05/28 05:25:54;;;;;;;3.42;1.20;;;;;;;19.79;42.65;98497.78;4485718;32;20088;-80
2022/05/28 05:28:20;;;;;;;3.55;1.20;;;;;;;20.02;42.31;98487.50;4487408;31;20080;-81
2022/05/28 05:30:45;;;;;;;3.78;1.30;;;;;;;20.08;42.07;98486.06;4487283;31;20119;-82
2022/05/28 05:33:11;;;;;;;4.35;1.33;;;;;;;19.93;41.53;98499.91;4486047;32;20104;-81
2022/05/28 05:35:36;;;;;;;3.92;1.25;;;;;;;19.99;42.01;98501.16;4487133;32;20129;-81
2022/05/28 05:38:05;;;;;;;3.42;1.35;;;;;;;20.20;42.15;98498.19;4487154;31;20100;-81
2022/05/28 05:40:35;;;;;;;3.75;1.35;;;;;;;20.30;41.19;98508.81;4486983;31;20115;-81
2022/05/28 05:43:01;;;;;;;5.97;1.48;;;;;;;20.22;40.61;98502.41;4487127;32;20535;-82
2022/05/28 05:45:26;;;;;;;3.22;1.30;;;;;;;20.13;40.75;98503.31;4487043;31;20103;-82
2022/05/28 05:47:52;;;;;;;4.30;1.30;;;;;;;20.15;40.13;98495.16;4487084;31;20077;-82
2022/05/28 05:50:17;;;;;;;4.97;1.52;;;;;;;20.07;39.98;98497.72;4485987;32;20127;-81
2022/05/28 05:52:43;;;;;;;5.43;1.40;;;;;;;20.29;39.36;98494.63;4487241;31;20492;-81
2022/05/28 05:55:09;;;;;;;3.30;1.23;;;;;;;20.58;38.78;98493.53;4487013;31;20106;-82
2022/05/28 05:57:34;;;;;;;4.28;1.40;;;;;;;20.43;38.70;98494.06;4487064;31;20482;-81
2022/05/28 05:59:59;;;;;;;5.00;1.30;;;;;;;20.65;38.13;98494.63;4486940;32;20138;-82
2022/05/28 06:02:25;;;;;;;5.32;1.20;;;;;;;20.83;38.22;98485.72;4485932;32;20128;-80
2022/05/28 06:04:50;;;;;;;4.85;1.30;;;;;;;21.06;38.09;98486.88;4486971;32;20076;-81
2022/05/28 06:07:16;;;;;;;4.00;1.12;;;;;;;21.10;37.09;98488.25;4485911;32;20084;-80
2022/05/28 06:09:41;;;;;;;6.28;1.30;;;;;;;21.26;37.40;98481.31;4486948;32;20100;-82
2022/05/28 06:12:07;;;;;;;4.70;1.33;;;;;;;21.53;36.54;98475.75;4487017;31;20092;-82
2022/05/28 06:14:32;;;;;;;4.50;1.23;;;;;;;21.60;36.25;98473.28;4486918;31;20141;-82
2022/05/28 06:16:58;;;;;;;5.87;1.52;;;;;;;21.84;35.91;98460.97;4485779;32;20104;-83
2022/05/28 06:19:23;;;;;;;5.70;1.50;;;;;;;22.19;35.77;98460.72;4486865;31;20444;-82
2022/05/28 06:21:49;;;;;;;4.47;1.15;;;;;;;22.43;35.08;98469.81;4486935;31;20088;-82
2022/05/28 06:24:15;;;;;;;4.50;1.15;;;;;;;22.27;35.21;98476.00;4465764;32;468549;-81
2022/05/28 06:26:40;;;;;;;7.45;1.37;;;;;;;22.34;34.54;98476.16;4473396;32;20420;-83
2022/05/28 06:29:06;;;;;;;5.68;1.40;;;;;;;22.40;35.04;98477.34;4469782;32;20109;-82
2022/05/28 06:31:31;;;;;;;3.60;1.17;;;;;;;22.43;33.78;98463.59;4470945;32;20405;-83
2022/05/28 06:33:56;;;;;;;5.03;1.25;;;;;;;22.52;32.66;98460.75;4469828;32;20119;-83
2022/05/28 06:36:22;;;;;;;5.00;1.23;;;;;;;22.60;33.40;98467.97;4470999;32;20084;-83
2022/05/28 06:38:47;;;;;;;6.55;1.50;;;;;;;22.82;33.27;98481.72;4470941;32;20112;-84
2022/05/28 06:41:13;;;;;;;5.57;1.20;;;;;;;22.66;32.15;98482.56;4470987;32;20452;-84
2022/05/28 06:43:38;;;;;;;5.28;1.30;;;;;;;22.60;33.05;98472.47;4471014;32;20080;-84
2022/05/28 06:46:05;;;;;;;4.30;1.40;;;;;;;22.61;33.71;98475.00;4470822;32;20495;-84
2022/05/28 06:48:31;;;;;;;4.40;1.30;;;;;;;22.89;32.20;98478.19;4469808;32;20155;-86
2022/05/28 06:51:03;;;;;;;5.35;1.60;;;;;;;22.87;31.76;98474.81;4470784;32;20157;-83
2022/05/28 06:53:40;;;;;;;3.72;1.20;;;;;;;22.62;32.21;98473.16;4471015;32;20306;-84
2022/05/28 06:56:07;;;;;;;4.82;1.30;;;;;;;22.56;32.33;98480.88;4469661;32;20160;-84
2022/05/28 06:58:32;;;;;;;7.25;1.40;;;;;;;22.84;31.24;98474.31;4469737;32;20142;-84
2022/05/28 07:00:59;;;;;;;7.53;1.35;;;;;;;22.97;31.54;98466.59;4470789;32;20231;-84
2022/05/28 07:03:29;;;;;;;6.25;1.40;;;;;;;23.14;31.13;98470.94;4470711;32;20089;-83
2022/05/28 07:05:55;;;;;;;5.62;1.40;;;;;;;23.07;28.55;98475.31;4470692;32;20107;-83
2022/05/28 07:08:21;;;;;;;5.97;1.40;;;;;;;23.16;28.85;98489.59;4470608;32;20128;-83
2022/05/28 07:10:52;;;;;;;5.20;1.30;;;;;;;23.21;29.33;98494.44;4470403;32;20160;-83
2022/05/28 07:13:19;;;;;;;5.70;1.20;;;;;;;22.98;28.94;98492.41;4471506;32;20096;-84
2022/05/28 07:15:44;;;;;;;3.83;1.45;;;;;;;22.87;29.06;98499.00;4472825;32;20232;-84
2022/05/28 07:18:10;;;;;;;4.00;1.30;;;;;;;23.12;27.96;98491.78;4471607;32;20146;-84
2022/05/28 07:20:36;;;;;;;7.22;1.52;;;;;;;23.15;28.60;98493.25;4472835;32;20124;-83
2022/05/28 07:23:17;;;;;;;4.40;1.27;;;;;;;23.26;28.61;98492.91;4472789;32;20176;-83
2022/05/28 07:25:44;;;;;;;4.03;1.15;;;;;;;23.58;29.36;98490.28;4471070;32;20111;-83
2022/05/28 07:28:25;;;;;;;6.50;1.52;;;;;;;23.47;29.09;98499.53;4471283;32;20476;-83
2022/05/28 07:31:03;;;;;;;3.30;1.27;;;;;;;23.29;28.85;98508.66;4471414;32;20109;-83
2022/05/28 07:33:33;;;;;;;4.47;1.30;;;;;;;23.13;29.48;98500.66;4472477;32;20384;-83
2022/05/28 07:35:59;;;;;;;3.95;1.27;;;;;;;23.40;29.60;98510.16;4472352;32;20155;-83
2022/05/28 07:38:26;;;;;;;8.88;1.58;;;;;;;23.17;29.00;98515.44;4472431;32;20080;-83
2022/05/28 07:40:52;;;;;;;6.43;1.25;;;;;;;23.33;29.62;98518.09;4472439;32;20108;-83
2022/05/28 07:43:18;;;;;;;5.60;1.23;;;;;;;23.36;29.45;98509.66;4472458;32;20163;-83
2022/05/28 07:45:44;;;;;;;6.82;1.70;;;;;;;23.35;28.79;98510.69;4471047;32;20452;-83
2022/05/28 07:48:11;;;;;;;7.32;1.40;;;;;;;23.44;27.71;98522.25;4472560;32;20161;-82
2022/05/28 07:50:37;;;;;;;5.50;1.50;;;;;;;23.52;28.44;98511.47;4472611;32;20125;-82
2022/05/28 07:53:03;;;;;;;5.22;1.30;;;;;;;23.29;29.17;98521.28;4471350;32;20084;-83
2022/05/28 07:55:28;;;;;;;6.30;1.40;;;;;;;23.54;29.49;98525.56;4471584;32;20391;-81
2022/05/28 07:57:54;;;;;;;8.65;1.50;;;;;;;23.52;29.54;98519.53;4484259;32;20152;-82
2022/05/28 08:00:19;;;;;;;6.10;1.40;;;;;;;23.71;29.61;98512.91;4485786;32;20108;-82
2022/05/28 08:02:45;;;;;;;8.07;1.50;;;;;;;23.61;29.93;98516.84;4488097;31;20138;-81
2022/05/28 08:05:11;;;;;;;5.55;1.50;;;;;;;23.46;28.92;98519.41;4487378;32;20080;-83
2022/05/28 08:07:36;;;;;;;7.18;1.58;;;;;;;23.37;28.51;98523.94;4486805;32;20101;-83
2022/05/28 08:10:03;;;;;;;8.63;1.90;;;;;;;23.75;27.77;98511.53;4487404;31;20394;-82
2022/05/28 08:12:28;;;;;;;7.03;1.50;;;;;;;24.11;27.00;98521.00;4487745;31;20505;-83
2022/05/28 08:14:54;;;;;;;6.35;1.60;;;;;;;23.89;27.51;98517.22;4487493;31;20100;-83
2022/05/28 08:17:19;;;;;;;7.53;1.80;;;;;;;24.21;28.15;98520.78;4486840;32;20483;-83
2022/05/28 08:19:45;;;;;;;4.45;1.37;;;;;;;24.10;28.42;98519.31;4487101;31;20172;-83
2022/05/28 08:24:54;;;;;;;6.75;1.30;;;;;;;24.42;27.98;98528.22;4486706;32;20098;-83
2022/05/28 08:27:20;;;;;;;7.28;1.42;;;;;;;24.47;27.41;98525.81;4487414;31;20088;-82
2022/05/28 08:29:45;;;;;;;9.57;1.65;;;;;;;24.54;26.97;98526.81;4487177;31;20165;-82
2022/05/28 08:32:12;;;;;;;6.60;1.60;;;;;;;24.68;27.29;98523.31;4486303;32;20096;-83
2022/05/28 08:34:38;;;;;;;6.82;1.73;;;;;;;24.61;27.26;98524.22;4487678;31;20439;-82
2022/05/28 08:37:03;;;;;;;5.93;1.50;;;;;;;24.86;27.24;98519.47;4485714;32;20088;-81
2022/05/28 08:39:29;;;;;;;8.15;1.60;;;;;;;25.04;27.62;98517.28;4487817;31;20088;-82
2022/05/28 08:41:57;;;;;;;4.97;1.35;;;;;;;25.16;27.70;98528.44;4487130;31;20072;-82
2022/05/28 08:44:28;;;;;;;7.87;1.80;;;;;;;25.20;28.29;98523.53;4486777;32;20076;-83
2022/05/28 08:46:56;;;;;;;5.57;1.62;;;;;;;25.29;29.06;98528.69;4486011;32;20117;-83
2022/05/28 08:49:25;;;;;;;8.25;1.83;;;;;;;25.38;27.50;98524.06;4487399;31;20108;-82
2022/05/28 08:51:59;;;;;;;7.50;1.77;;;;;;;25.46;26.95;98513.19;4486921;31;20108;-82
2022/05/28 08:54:37;;;;;;;6.68;1.50;;;;;;;25.29;27.61;98526.00;4470318;32;20102;-83
2022/05/28 08:57:08;;;;;;;9.75;1.90;;;;;;;24.82;27.06;98528.94;4470722;32;20128;-82
2022/05/28 09:00:00;;;;;;;5.37;1.48;;;;;;;24.41;27.66;98534.59;4470740;32;20571;-83
2022/05/28 09:02:39;;;;;;;9.38;1.83;;;;;;;24.37;28.13;98527.91;4470480;32;20085;-83
2022/05/28 09:05:05;;;;;;;;;;;;;;;24.16;28.25;98521.28;4470939;32;20407;-83
2022/05/28 09:07:31;;;;;;;5.50;1.42;;;;;;;24.33;28.48;98517.47;4470615;32;19991;-83
2022/05/28 09:09:56;;;;;;;10.55;2.40;;;;;;;24.55;28.69;98516.84;4470550;32;20096;-84
2022/05/28 09:12:25;;;;;;;10.77;1.90;;;;;;;24.64;28.44;98515.78;4470523;32;20365;-83
2022/05/28 09:14:51;;;;;;;5.82;1.40;;;;;;;24.65;28.45;98515.63;4471692;32;20357;-84
2022/05/28 09:17:24;;;;;;;9.77;2.00;;;;;;;24.70;29.04;98512.38;4471652;32;20156;-84
2022/05/28 09:19:51;;;;;;;6.57;1.50;;;;;;;24.59;29.10;98504.69;4470536;32;20096;-84
2022/05/28 09:22:16;;;;;;;14.63;1.85;;;;;;;24.79;28.55;98497.81;4471665;32;20088;-84
2022/05/28 09:24:42;;;;;;;4.07;1.23;;;;;;;24.81;28.31;98497.63;4470324;32;20114;-84
2022/05/28 09:27:31;;;;;;;5.30;1.52;;;;;;;25.03;28.35;98502.13;4471603;32;20411;-84
2022/05/28 09:29:56;;;;;;;7.03;1.90;;;;;;;24.96;27.79;98498.50;4471649;32;20152;-84
2022/05/28 09:32:35;;;;;;;7.28;2.20;;;;;;;24.04;28.55;98503.88;4471517;32;20080;-85
2022/05/28 09:35:10;;;;;;;7.60;1.77;;;;;;;24.45;28.55;98506.28;4470246;32;20072;-85
2022/05/28 09:37:35;;;;;;;7.87;1.70;;;;;;;24.77;28.75;98499.84;4470556;32;20123;-84
2022/05/28 09:40:09;;;;;;;7.87;1.77;;;;;;;24.34;28.75;98504.88;4471473;32;20096;-84
2022/05/28 09:43:03;;;;;;;7.12;1.60;;;;;;;24.66;28.50;98501.09;4471561;32;20081;-85
2022/05/28 09:45:41;;;;;;;6.20;1.70;;;;;;;24.86;29.21;98514.06;4470317;32;20073;-84
2022/05/28 09:48:17;;;;;;;8.05;1.80;;;;;;;24.97;29.03;98510.94;4470431;32;20108;-84
2022/05/28 09:50:42;;;;;;;6.10;1.45;;;;;;;24.84;29.25;98518.81;4470485;32;20123;-84
2022/05/28 09:56:04;;;;;;;10.48;1.67;;;;;;;24.90;27.57;98518.94;4470535;32;20156;-84
2022/05/28 09:58:31;;;;;;;7.00;1.65;;;;;;;25.23;26.67;98520.53;4471475;32;20076;-85
2022/05/28 10:01:20;;;;;;;6.13;1.50;;;;;;;25.21;28.36;98520.66;4471456;32;20104;-85
2022/05/28 10:06:32;;;;;;;7.82;2.05;;;;;;;25.21;29.82;98511.75;4470231;32;20156;-84
2022/05/28 10:08:58;;;;;;;6.37;1.80;;;;;;;25.34;29.37;98516.50;4470351;32;20109;-84
2022/05/28 10:11:24;;;;;;;6.40;1.60;;;;;;;25.56;29.38;98510.19;4470115;32;20480;-84
2022/05/28 10:13:52;;;;;;;8.27;1.65;;;;;;;25.71;28.92;98507.50;4456955;32;20250;-84
2022/05/28 10:16:23;;;;;;;5.85;1.70;;;;;;;25.44;28.92;98512.53;4470056;32;20085;-84
2022/05/28 10:18:57;;;;;;;6.37;1.77;;;;;;;25.58;28.69;98513.53;4470150;32;20488;-84
2022/05/28 10:21:37;;;;;;;6.18;1.65;;;;;;;25.35;28.18;98500.16;4471462;32;20135;-84
2022/05/28 10:24:17;;;;;;;5.10;1.90;;;;;;;25.48;27.98;98499.50;4470103;32;20109;-84
2022/05/28 10:26:49;;;;;;;6.00;1.80;;;;;;;25.30;28.18;98495.34;4470974;32;20403;-84
2022/05/28 10:29:29;;;;;;;5.68;1.52;;;;;;;25.23;28.95;98499.78;4469993;32;20105;-84
2022/05/28 10:31:58;;;;;;;4.25;1.58;;;;;;;25.26;29.05;98485.91;4471147;32;20114;-84
2022/05/28 10:34:27;;;;;;;5.50;1.75;;;;;;;25.16;28.92;98479.09;4469985;32;20105;-84
2022/05/28 10:36:52;;;;;;;6.68;1.95;;;;;;;25.02;29.09;98483.47;4471083;32;20146;-84
2022/05/28 10:39:18;;;;;;;6.55;1.85;;;;;;;24.26;29.44;98489.63;4469832;32;20131;-84
2022/05/28 10:41:47;;;;;;;6.60;1.62;;;;;;;24.32;29.15;98491.59;4469960;32;20115;-84
2022/05/28 10:44:14;;;;;;;7.30;1.80;;;;;;;24.14;28.68;98489.19;4469644;32;20106;-84
2022/05/28 10:46:49;;;;;;;5.93;1.95;;;;;;;23.94;28.84;98494.16;4470183;32;20443;-84
2022/05/28 10:49:20;;;;;;;7.32;1.73;;;;;;;23.60;28.86;98489.09;4470938;32;20495;-84
2022/05/28 10:51:49;;;;;;;7.47;2.00;;;;;;;23.55;28.00;98486.09;4470948;32;20576;-84
2022/05/28 10:54:30;;;;;;;5.95;1.60;;;;;;;23.52;28.00;98473.81;4470992;32;20088;-85
2022/05/28 10:57:03;;;;;;;8.07;1.90;;;;;;;24.05;28.14;98492.09;4469604;32;20111;-84
2022/05/28 10:59:56;;;;;;;8.70;1.87;;;;;;;24.29;28.41;98485.72;4469628;32;20149;-85
2022/05/28 11:02:44;;;;;;;6.75;1.55;;;;;;;24.41;27.54;98483.44;4470853;32;20162;-84
2022/05/28 11:05:39;;;;;;;7.90;1.70;;;;;;;24.29;25.84;98474.94;4470717;32;20080;-84
2022/05/28 11:08:16;;;;;;;6.25;1.62;;;;;;;24.43;25.50;98465.25;4470823;32;20069;-85
2022/05/28 11:10:55;;;;;;;7.50;1.80;;;;;;;24.50;26.14;98477.00;4469597;32;20387;-84
2022/05/28 11:13:32;;;;;;;;;;;;;;;24.71;25.38;98470.97;4469811;32;20105;-85
2022/05/28 11:16:24;;;;;;;5.75;1.73;;;;;;;24.62;25.37;98474.72;4470535;32;20039;-85
2022/05/28 11:19:10;;;;;;;5.12;1.40;;;;;;;24.86;24.95;98466.44;4470428;32;20076;-84
2022/05/28 11:22:00;;;;;;;7.45;1.80;;;;;;;25.05;25.00;98469.59;4462162;32;20089;-84
2022/05/28 11:24:54;;;;;;;7.72;1.70;;;;;;;24.73;22.95;98467.03;4470465;32;20135;-84
2022/05/28 11:27:29;;;;;;;7.20;1.48;;;;;;;24.29;23.95;98472.25;4469145;32;20100;-84
2022/05/28 11:30:06;;;;;;;6.72;1.60;;;;;;;24.56;24.24;98468.22;4469274;32;20175;-84
2022/05/28 11:33:12;;;;;;;6.12;1.95;;;;;;;24.36;24.72;98464.28;4470416;32;20089;-84
2022/05/28 11:35:38;;;;;;;6.35;1.50;;;;;;;24.58;24.44;98451.88;4436955;32;20096;-85
2022/05/28 11:38:09;;;;;;;7.18;1.70;;;;;;;24.85;25.24;98448.56;4436929;32;20119;-84
2022/05/28 11:40:48;;;;;;;6.85;1.60;;;;;;;24.60;24.41;98458.75;4436949;32;20093;-84
2022/05/28 11:43:24;;;;;;;7.32;1.80;;;;;;;24.88;24.71;98439.31;4436904;32;20183;-84
2022/05/28 11:46:04;;;;;;;7.07;1.87;;;;;;;25.08;24.48;98434.22;4424049;32;20605;-84
2022/05/28 11:51:37;;;;;;;5.07;1.52;;;;;;;24.82;23.58;98432.81;4425872;32;20104;-84
2022/05/28 11:54:33;;;;;;;10.43;1.65;;;;;;;24.57;23.81;98428.66;4436864;32;20161;-84